Wyncote, Pennsylvania
Current Conditions -  °F | °C
As of 9:15 AM on Monday 26 Jan 2015 (Local Time) from KLOM Reporting Station
Overcast Overcast  
Wind Chill: 20°   Ceiling: 900
Heat Index: 27°   Visibility: 1.5mi
Dew Point: 21°   Wind: 6mph
Humidity: 80%   Direction: 50°NE
Pressure: 29.9"   Gusts: NA
Location:  40.09°N, 75.15°W
Report Text: KLOM 261415Z AUTO 05005KT 1 1/2SM OVC009 M03/M06 A2990 RMK AO1
Loading
Personal Weather Stations






























Interactive Weather Map New forecast layout! Learn more

10-Day Weather Forecast

Advertisements
Track Severe Weather on mobile